Terminal Aerodrome Forecast
Issued by NWS Shreveport, LA

Home | Current Version | Previous Version | Text Only | Print | Product List | Glossary On
Versions: 1 2 3 4 5 6 7 8 9 10 11 12 13 14 15
000
FTUS44 KSHV 070532
TAFTXK
TAF
KTXK 070532Z 0706/0806 16005KT P6SM SCT060 BKN070
     FM071100 16004KT P6SM SCT015 SCT060 BKN250
      TEMPO 0711/0714 BKN015
     FM071400 18009KT P6SM BKN015
     FM071700 17010KT P6SM BKN030
     FM071900 16010KT P6SM BKN040
     FM080000 16008KT P6SM SCT050 SCT090 BKN250=

USA.gov is the U.S. government's official web portal to all federal, state and local government web resources and services.